London, Canada
Current Conditions -  °F | °C
As of 3:00 AM on Friday 19 Dec 2014 (Local Time) from CYXU Reporting Station
Light Snow Light Snow  
Wind Chill: 13°   Ceiling: 1800
Heat Index: 23°   Visibility: 15mi
Dew Point: 19°   Wind: 9mph
Humidity: 86%   Direction: 350°N
Pressure: 30.14"   Gusts: 17mph
Location:  42.99°N, 81.25°W
Report Text: CYXU 190800Z 35008G15KT 15SM -SN FEW012 OVC018 M05/M07 A3014 RMK SF2SC6 SLP221
Loading
Personal Weather Stations






























Interactive Weather Map New forecast layout! Learn more

10-Day Weather Forecast

Advertisements
Track Severe Weather on mobile